Time;durP1;ratioP1;P1;durP2;ratioP2;P2;SDS_P1;SDS_P2;PMS_P1;PMS_P2;Temp;Humidity;BMP_temperature;BMP_pressure;BME280_temperature;BME280_humidity;BME280_pressure;Samples;Min_cycle;Max_cycle;Signal;HPM_P1;HPM_P2
2021/12/28 00:00:33;;;;;;;0.00;0.00;;;;;;;8.13;100.00;98051.72;5031385;28;20050;-80
2021/12/28 00:03:01;;;;;;;0.00;0.00;;;;;;;8.12;100.00;98039.91;5030861;28;20579;-80
2021/12/28 00:05:28;;;;;;;0.00;0.00;;;;;;;8.14;100.00;98047.75;5030674;28;20496;-80
2021/12/28 00:07:54;;;;;;;0.00;0.00;;;;;;;8.14;100.00;98058.78;5014483;28;20412;-80
2021/12/28 00:10:22;;;;;;;0.00;0.00;;;;;;;8.13;100.00;98048.97;5027739;28;20056;-80
2021/12/28 00:12:49;;;;;;;0.00;0.00;;;;;;;8.14;100.00;98058.78;5012201;28;20041;-80
2021/12/28 00:18:04;;;;;;;0.00;0.00;;;;;;;8.13;100.00;98058.00;5012656;28;20033;-81
2021/12/28 00:20:35;;;;;;;0.00;0.00;;;;;;;8.14;100.00;98047.75;5012163;28;20044;-80
2021/12/28 00:23:06;;;;;;;0.00;0.00;;;;;;;8.13;100.00;98052.50;5012002;28;20137;-81
2021/12/28 00:25:33;;;;;;;0.00;0.00;;;;;;;8.14;100.00;98054.06;5017687;28;20039;-81
2021/12/28 00:28:00;;;;;;;0.00;0.00;;;;;;;8.14;100.00;98058.78;5040447;28;20048;-80
2021/12/28 00:30:29;;;;;;;0.00;0.00;;;;;;;8.14;100.00;98050.53;5031627;28;20114;-80
2021/12/28 00:32:56;;;;;;;0.00;0.00;;;;;;;8.14;100.00;98051.31;5031718;28;20619;-80
2021/12/28 00:35:25;;;;;;;0.00;0.00;;;;;;;8.14;100.00;98056.03;5015383;28;20117;-80
2021/12/28 00:37:53;;;;;;;0.00;0.00;;;;;;;8.14;100.00;98058.78;5011517;28;20042;-81
2021/12/28 00:40:20;;;;;;;0.00;0.00;;;;;;;8.13;100.00;98058.00;5011993;28;20488;-81
2021/12/28 00:42:47;;;;;;;0.00;0.00;;;;;;;8.14;100.00;98050.53;5011612;28;20041;-80
2021/12/28 00:45:15;;;;;;;0.00;0.00;;;;;;;8.14;100.00;98036.75;5009690;28;20056;-80
2021/12/28 00:47:42;;;;;;;0.00;0.00;;;;;;;8.15;100.00;98032.81;5010588;28;20120;-80
2021/12/28 00:50:11;;;;;;;0.00;0.00;;;;;;;8.15;100.00;98032.81;5010480;28;20046;-81
2021/12/28 00:52:39;;;;;;;0.00;0.00;;;;;;;8.15;100.00;98030.06;5010986;28;20046;-81
2021/12/28 00:55:07;;;;;;;0.00;0.00;;;;;;;8.13;100.00;98030.44;5011388;28;20045;-80
2021/12/28 00:57:33;;;;;;;0.00;0.00;;;;;;;8.12;100.00;98028.88;4994073;28;20054;-80
2021/12/28 01:00:01;;;;;;;0.00;0.00;;;;;;;8.12;100.00;98033.59;5010237;28;20506;-80
2021/12/28 01:02:27;;;;;;;0.00;0.00;;;;;;;8.12;100.00;98028.09;5010254;28;20056;-81
2021/12/28 01:04:54;;;;;;;0.00;0.00;;;;;;;8.10;100.00;98017.44;5010514;28;20092;-80
2021/12/28 01:07:21;;;;;;;0.00;0.00;;;;;;;8.10;100.00;98008.41;5010007;28;20046;-80
2021/12/28 01:09:48;;;;;;;0.03;0.03;;;;;;;8.11;100.00;97998.94;5011070;28;20049;-81
2021/12/28 01:12:15;;;;;;;0.00;0.00;;;;;;;8.12;100.00;98006.03;5009324;28;20045;-80
2021/12/28 01:14:42;;;;;;;0.00;0.00;;;;;;;8.10;100.00;97997.41;5011026;28;20104;-80
2021/12/28 01:17:09;;;;;;;0.00;0.00;;;;;;;8.09;100.00;97990.31;5011190;28;20399;-80
2021/12/28 01:19:35;;;;;;;0.00;0.00;;;;;;;8.08;100.00;97992.25;5010078;28;20042;-80
2021/12/28 01:22:05;;;;;;;0.00;0.00;;;;;;;8.05;100.00;97995.81;5009904;28;20386;-80
2021/12/28 01:24:32;;;;;;;0.00;0.00;;;;;;;8.03;100.00;97998.19;5011059;28;20044;-80
2021/12/28 01:26:59;;;;;;;0.00;0.00;;;;;;;8.03;100.00;97989.91;5040724;28;20047;-81
2021/12/28 01:29:26;;;;;;;0.00;0.00;;;;;;;8.03;100.00;97975.34;5051005;28;20045;-80
2021/12/28 01:31:53;;;;;;;0.00;0.00;;;;;;;8.02;100.00;97976.53;5041769;28;20033;-80
2021/12/28 01:34:20;;;;;;;0.00;0.00;;;;;;;8.00;100.00;97982.44;5029391;28;20084;-81
2021/12/28 01:36:47;;;;;;;0.00;0.00;;;;;;;8.00;100.00;97985.19;5029466;28;20124;-80
2021/12/28 01:39:14;;;;;;;0.10;0.10;;;;;;;7.99;100.00;97980.88;5030308;28;20045;-81
2021/12/28 01:41:42;;;;;;;0.00;0.00;;;;;;;7.99;100.00;97976.13;5027966;28;20048;-80
2021/12/28 01:44:11;;;;;;;0.00;0.00;;;;;;;7.99;100.00;97965.09;5011016;28;20084;-81
2021/12/28 01:46:38;;;;;;;0.00;0.00;;;;;;;8.01;100.00;97977.72;5009789;28;20050;-80
2021/12/28 01:49:08;;;;;;;0.00;0.00;;;;;;;7.99;100.00;97965.09;4993610;28;20062;-80
2021/12/28 01:51:35;;;;;;;0.03;0.03;;;;;;;7.98;100.00;97966.31;5011289;28;20052;-80
2021/12/28 01:54:04;;;;;;;0.00;0.00;;;;;;;7.97;100.00;97961.97;5011228;28;20038;-80
2021/12/28 01:56:44;;;;;;;0.00;0.00;;;;;;;7.98;100.00;97952.53;5012487;28;20042;-80
2021/12/28 01:59:14;;;;;;;0.00;0.00;;;;;;;7.99;100.00;97950.56;5015146;28;20042;-81
2021/12/28 02:01:42;;;;;;;0.00;0.00;;;;;;;7.99;100.00;97953.31;5014423;28;20092;-81
2021/12/28 02:04:28;;;;;;;0.00;0.00;;;;;;;7.98;100.00;97949.00;5014907;28;20042;-80
2021/12/28 02:06:57;;;;;;;0.00;0.00;;;;;;;7.97;100.00;97936.38;5014527;28;20048;-80
2021/12/28 02:09:25;;;;;;;0.00;0.00;;;;;;;7.96;100.00;97935.63;5014693;28;20049;-80
2021/12/28 02:11:52;;;;;;;0.00;0.00;;;;;;;7.95;100.00;97939.53;5012892;28;20049;-80
2021/12/28 02:14:20;;;;;;;0.00;0.00;;;;;;;7.94;100.00;97937.97;5014724;28;20046;-80
2021/12/28 02:16:47;;;;;;;0.00;0.00;;;;;;;7.94;100.00;97942.72;5013579;28;20591;-81
2021/12/28 02:19:16;;;;;;;0.00;0.00;;;;;;;7.93;100.00;97949.38;5014395;28;20092;-80
2021/12/28 02:21:43;;;;;;;0.00;0.00;;;;;;;7.92;100.00;97937.56;5012676;28;20096;-80
2021/12/28 02:24:10;;;;;;;0.28;0.28;;;;;;;7.93;100.00;97938.38;5013151;28;20049;-80
2021/12/28 02:26:37;;;;;;;0.00;0.00;;;;;;;7.92;100.00;97936.78;5029356;28;20115;-80
2021/12/28 02:29:05;;;;;;;0.00;0.00;;;;;;;7.92;100.00;97934.81;5052775;28;20044;-80
2021/12/28 02:31:32;;;;;;;0.00;0.00;;;;;;;7.92;100.00;97932.06;5052410;28;20141;-80
2021/12/28 02:34:02;;;;;;;0.00;0.00;;;;;;;7.93;100.00;97930.09;5028667;28;20037;-80
2021/12/28 02:36:29;;;;;;;0.00;0.00;;;;;;;7.93;100.00;97932.84;5013059;28;20493;-80
2021/12/28 02:38:56;;;;;;;0.00;0.00;;;;;;;7.95;100.00;97919.47;5032177;28;20046;-80
2021/12/28 02:41:23;;;;;;;0.00;0.00;;;;;;;7.93;100.00;97911.63;5032358;28;20040;-81
2021/12/28 02:43:50;;;;;;;0.00;0.00;;;;;;;7.94;100.00;97924.19;5033827;28;20052;-80
2021/12/28 02:46:17;;;;;;;0.00;0.00;;;;;;;7.94;100.00;97907.66;5032321;28;20056;-80
2021/12/28 02:48:44;;;;;;;0.00;0.00;;;;;;;7.96;100.00;97905.31;5033695;28;20083;-80
2021/12/28 02:51:16;;;;;;;0.00;0.00;;;;;;;7.97;100.00;97900.56;5019233;28;20045;-81
2021/12/28 02:53:44;;;;;;;0.00;0.00;;;;;;;7.98;100.00;97910.41;5013180;28;20054;-80
2021/12/28 02:56:13;;;;;;;0.00;0.00;;;;;;;7.98;100.00;97897.44;5014003;28;20054;-80
2021/12/28 02:58:48;;;;;;;0.30;0.30;;;;;;;7.99;100.00;97892.72;5012484;28;20120;-80
2021/12/28 03:01:28;;;;;;;0.00;0.00;;;;;;;7.99;100.00;97884.44;5012387;28;20131;-80
2021/12/28 03:04:03;;;;;;;0.00;0.00;;;;;;;8.02;100.00;97885.63;5013516;28;20045;-80
2021/12/28 03:06:32;;;;;;;0.00;0.00;;;;;;;7.99;100.00;97884.44;5013065;28;20050;-80
2021/12/28 03:09:00;;;;;;;0.00;0.00;;;;;;;8.01;100.00;97878.53;5032545;28;20084;-80
2021/12/28 03:11:28;;;;;;;0.00;0.00;;;;;;;8.01;100.00;97873.03;5028245;28;20057;-81
2021/12/28 03:13:58;;;;;;;0.00;0.00;;;;;;;7.99;100.00;97870.69;5012053;28;20121;-80
2021/12/28 03:16:27;;;;;;;0.00;0.00;;;;;;;7.98;100.00;97864.38;5011875;28;20038;-80
2021/12/28 03:18:54;;;;;;;0.00;0.00;;;;;;;7.99;100.00;97871.44;5011974;28;20096;-80
2021/12/28 03:21:22;;;;;;;0.00;0.00;;;;;;;8.02;100.00;97869.09;5012023;28;20046;-80
2021/12/28 03:23:50;;;;;;;0.00;0.00;;;;;;;8.02;100.00;97863.59;5012013;28;20088;-80
2021/12/28 03:26:17;;;;;;;0.00;0.00;;;;;;;8.02;100.00;97863.59;5022913;28;20428;-80
2021/12/28 03:28:45;;;;;;;0.00;0.00;;;;;;;8.02;100.00;97863.59;5051717;28;20082;-80
2021/12/28 03:31:15;;;;;;;0.00;0.00;;;;;;;8.01;100.00;97856.50;5051387;28;20049;-79
2021/12/28 03:33:44;;;;;;;0.00;0.00;;;;;;;8.01;100.00;97856.50;5052564;28;20484;-79
2021/12/28 03:36:12;;;;;;;0.00;0.00;;;;;;;8.02;100.00;97858.06;5051234;28;20119;-79
2021/12/28 03:38:40;;;;;;;0.00;0.00;;;;;;;8.02;100.00;97852.56;5052384;28;20051;-80
2021/12/28 03:41:08;;;;;;;0.00;0.00;;;;;;;8.02;100.00;97853.34;5041975;28;20042;-79
2021/12/28 03:43:36;;;;;;;0.00;0.00;;;;;;;8.02;100.00;97839.59;5017344;28;20056;-79
2021/12/28 03:46:04;;;;;;;0.00;0.00;;;;;;;8.03;100.00;97843.09;5031092;28;20041;-79
2021/12/28 03:48:31;;;;;;;0.00;0.00;;;;;;;8.03;100.00;97838.38;5032429;28;20033;-79
2021/12/28 03:50:58;;;;;;;0.00;0.00;;;;;;;8.02;100.00;97838.78;5030986;28;20042;-79
2021/12/28 03:53:26;;;;;;;0.00;0.00;;;;;;;8.02;100.00;97836.03;5032320;28;20438;-79
2021/12/28 03:55:52;;;;;;;0.00;0.00;;;;;;;8.02;100.00;97842.34;5014592;28;20432;-79
2021/12/28 03:58:19;;;;;;;0.00;0.00;;;;;;;8.02;100.00;97847.06;5024622;28;20418;-79
2021/12/28 04:00:48;;;;;;;0.00;0.00;;;;;;;8.01;100.00;97845.47;5011216;28;20409;-79
2021/12/28 04:03:16;;;;;;;0.00;0.00;;;;;;;8.02;100.00;97834.06;5012151;28;20037;-79
2021/12/28 04:05:44;;;;;;;0.00;0.00;;;;;;;8.02;100.00;97847.06;5011977;28;20486;-79
2021/12/28 04:08:13;;;;;;;0.00;0.00;;;;;;;8.02;100.00;97841.53;5011179;28;20057;-79
2021/12/28 04:10:52;;;;;;;0.00;0.00;;;;;;;8.02;100.00;97838.78;5010653;28;20033;-79
2021/12/28 04:13:21;;;;;;;0.00;0.00;;;;;;;8.02;100.00;97841.53;5012369;28;20081;-79
2021/12/28 04:15:48;;;;;;;0.00;0.00;;;;;;;8.02;100.00;97838.78;5011670;28;20048;-79
2021/12/28 04:18:17;;;;;;;0.00;0.00;;;;;;;8.02;100.00;97838.78;5010696;28;20121;-79
2021/12/28 04:20:44;;;;;;;0.00;0.00;;;;;;;8.02;100.00;97842.34;5012246;28;20467;-79
2021/12/28 04:23:12;;;;;;;0.00;0.00;;;;;;;8.03;100.00;97837.59;5010898;28;20493;-79
2021/12/28 04:25:38;;;;;;;0.00;0.00;;;;;;;8.04;100.00;97839.97;5010913;28;20124;-79
2021/12/28 04:28:05;;;;;;;0.00;0.00;;;;;;;8.05;100.00;97835.25;5050761;28;20045;-79
2021/12/28 04:30:35;;;;;;;0.00;0.00;;;;;;;8.04;100.00;97833.66;5050322;28;20370;-79
2021/12/28 04:33:02;;;;;;;0.00;0.00;;;;;;;8.02;100.00;97825.81;5027068;28;20045;-79
2021/12/28 04:35:29;;;;;;;0.00;0.00;;;;;;;8.02;100.00;97825.00;5010508;28;20038;-79
2021/12/28 04:37:55;;;;;;;0.00;0.00;;;;;;;8.01;100.00;97823.44;5011415;28;20046;-79
2021/12/28 04:40:22;;;;;;;0.00;0.00;;;;;;;7.99;100.00;97824.59;5011832;28;20046;-80
2021/12/28 04:42:49;;;;;;;0.00;0.00;;;;;;;8.01;100.00;97823.44;5011642;28;20034;-79
2021/12/28 04:45:18;;;;;;;0.00;0.00;;;;;;;7.99;100.00;97821.84;5010234;28;20091;-79
2021/12/28 04:47:45;;;;;;;0.00;0.00;;;;;;;8.01;100.00;97812.41;5010349;28;20038;-78
2021/12/28 04:50:14;;;;;;;0.00;0.00;;;;;;;7.99;100.00;97807.31;5024797;28;20049;-79
2021/12/28 04:52:42;;;;;;;0.00;0.00;;;;;;;8.02;100.00;97808.47;5030027;28;20125;-79
2021/12/28 04:55:15;;;;;;;0.00;0.00;;;;;;;8.02;100.00;97808.47;5031497;28;20068;-80
2021/12/28 04:57:43;;;;;;;0.00;0.00;;;;;;;7.98;100.00;97814.78;5031416;28;20041;-79
2021/12/28 05:00:14;;;;;;;0.00;0.00;;;;;;;7.97;100.00;97813.22;5029625;28;20071;-79
2021/12/28 05:02:41;;;;;;;0.00;0.00;;;;;;;7.98;100.00;97820.31;5029694;28;20388;-79
2021/12/28 05:05:11;;;;;;;0.00;0.00;;;;;;;7.97;100.00;97818.72;5013970;28;20100;-79
2021/12/28 05:07:37;;;;;;;0.00;0.00;;;;;;;7.97;100.00;97829.72;5014325;28;20034;-79
2021/12/28 05:10:05;;;;;;;0.00;0.00;;;;;;;7.96;100.00;97819.91;5011562;28;20046;-79
2021/12/28 05:12:32;;;;;;;0.00;0.00;;;;;;;7.98;100.00;97833.28;4993754;28;20053;-79
2021/12/28 05:15:00;;;;;;;0.00;0.00;;;;;;;7.97;100.00;97835.25;5011336;28;20038;-79
2021/12/28 05:17:27;;;;;;;0.00;0.00;;;;;;;7.97;100.00;97837.22;4993733;28;20141;-79
2021/12/28 05:19:55;;;;;;;0.00;0.00;;;;;;;7.97;100.00;97829.72;5010198;28;20470;-79
2021/12/28 05:22:21;;;;;;;0.00;0.00;;;;;;;7.97;100.00;97832.50;5026346;28;20046;-78
2021/12/28 05:24:48;;;;;;;0.00;0.00;;;;;;;7.97;100.00;97842.72;5008589;28;20072;-79
2021/12/28 05:27:15;;;;;;;0.00;0.00;;;;;;;7.97;100.00;97840.75;5038081;28;20060;-79
2021/12/28 05:29:42;;;;;;;0.00;0.00;;;;;;;7.98;100.00;97847.06;5050904;28;20041;-79
2021/12/28 05:32:09;;;;;;;0.00;0.00;;;;;;;8.01;100.00;97850.97;5055125;28;20037;-79
2021/12/28 05:34:35;;;;;;;0.00;0.00;;;;;;;8.00;100.00;97861.22;5053349;28;20045;-79
2021/12/28 05:37:02;;;;;;;0.00;0.00;;;;;;;7.99;100.00;97865.94;5053253;28;20388;-79
2021/12/28 05:39:29;;;;;;;0.00;0.00;;;;;;;8.02;100.00;97880.13;5053013;28;20522;-79
2021/12/28 05:41:56;;;;;;;0.00;0.00;;;;;;;8.02;100.00;97885.63;5015317;28;20073;-79
2021/12/28 05:44:23;;;;;;;0.00;0.00;;;;;;;8.02;100.00;97880.91;5013544;28;20500;-79
2021/12/28 05:46:51;;;;;;;0.00;0.00;;;;;;;8.04;100.00;97888.75;5013773;28;20539;-79
2021/12/28 05:49:18;;;;;;;0.00;0.00;;;;;;;8.03;100.00;97887.97;5013653;28;20474;-79
2021/12/28 05:51:45;;;;;;;0.00;0.00;;;;;;;8.03;100.00;97903.72;5021856;28;20460;-79
2021/12/28 05:54:12;;;;;;;0.00;0.00;;;;;;;8.02;100.00;97899.41;5033296;28;20063;-78
2021/12/28 05:56:39;;;;;;;0.00;0.00;;;;;;;8.01;100.00;97911.59;5032077;28;20610;-79
2021/12/28 05:59:06;;;;;;;0.00;0.00;;;;;;;7.98;100.00;97908.47;5015012;28;20049;-79
2021/12/28 06:01:34;;;;;;;0.00;0.00;;;;;;;7.96;100.00;97913.59;5014513;28;20041;-79
2021/12/28 06:04:01;;;;;;;0.00;0.00;;;;;;;7.93;100.00;97917.13;5013310;28;20069;-79
2021/12/28 06:06:28;;;;;;;0.00;0.00;;;;;;;7.92;100.00;97926.56;5013625;28;20046;-79
2021/12/28 06:08:57;;;;;;;0.00;0.00;;;;;;;7.89;100.00;97932.84;5013392;28;20049;-79
2021/12/28 06:11:24;;;;;;;0.00;0.00;;;;;;;7.85;100.00;97921.06;5014303;28;20117;-79
2021/12/28 06:13:51;;;;;;;0.10;0.10;;;;;;;7.82;100.00;97941.13;5014848;28;20489;-79
2021/12/28 06:16:18;;;;;;;0.00;0.00;;;;;;;7.81;100.00;97949.81;5034266;28;20064;-79
2021/12/28 06:18:45;;;;;;;0.00;0.00;;;;;;;7.77;100.00;97946.25;5034308;28;20041;-79
2021/12/28 06:21:12;;;;;;;0.00;0.00;;;;;;;7.76;100.00;97945.47;5034349;28;20047;-80
2021/12/28 06:23:40;;;;;;;0.00;0.00;;;;;;;7.75;100.00;97959.63;5032953;28;20087;-79
2021/12/28 06:26:06;;;;;;;0.00;0.00;;;;;;;7.74;100.00;97969.88;5020388;28;20155;-79
2021/12/28 06:28:33;;;;;;;0.00;0.00;;;;;;;7.74;100.00;97967.09;5053779;28;20041;-79
2021/12/28 06:31:00;;;;;;;0.00;0.00;;;;;;;7.73;100.00;97973.78;5047002;28;20124;-79
2021/12/28 06:33:27;;;;;;;0.00;0.00;;;;;;;7.74;100.00;97980.09;5012836;28;20176;-80
2021/12/28 06:35:54;;;;;;;0.00;0.00;;;;;;;7.74;100.00;97983.63;5012599;28;20144;-79
2021/12/28 06:38:21;;;;;;;0.00;0.00;;;;;;;7.72;100.00;97993.47;5014583;28;20049;-80
2021/12/28 06:40:48;;;;;;;0.00;0.00;;;;;;;7.72;100.00;97999.75;4996449;28;20060;-80
2021/12/28 06:43:15;;;;;;;0.00;0.00;;;;;;;7.71;100.00;97998.19;5012661;28;20042;-79
2021/12/28 06:45:42;;;;;;;0.00;0.00;;;;;;;7.69;100.00;98003.31;5013993;28;20076;-80
2021/12/28 06:48:09;;;;;;;0.00;0.00;;;;;;;7.68;100.00;98004.47;5013376;28;20076;-80
2021/12/28 06:50:35;;;;;;;0.00;0.00;;;;;;;7.68;100.00;98009.19;4996296;28;20080;-80
2021/12/28 06:53:02;;;;;;;0.00;0.00;;;;;;;7.64;100.00;98003.69;5031325;28;20060;-81
2021/12/28 06:55:29;;;;;;;0.00;0.00;;;;;;;7.66;100.00;98025.31;5034035;28;20052;-80
2021/12/28 06:57:56;;;;;;;0.00;0.00;;;;;;;7.66;100.00;98026.09;5032279;28;20377;-80
2021/12/28 07:00:23;;;;;;;0.00;0.00;;;;;;;7.64;100.00;98028.47;5031827;28;20859;-80
2021/12/28 07:02:49;;;;;;;0.00;0.00;;;;;;;7.63;100.00;98037.91;5015736;28;20052;-80
2021/12/28 07:05:17;;;;;;;0.00;0.00;;;;;;;7.61;100.00;98047.72;5027749;28;20066;-81
2021/12/28 07:07:43;;;;;;;0.00;0.00;;;;;;;7.59;100.00;98052.84;5012436;28;20045;-80
2021/12/28 07:10:11;;;;;;;0.00;0.00;;;;;;;7.57;100.00;98064.22;5012188;28;20046;-80
2021/12/28 07:12:41;;;;;;;0.00;0.00;;;;;;;7.57;100.00;98072.50;5013449;28;20119;-81
2021/12/28 07:15:08;;;;;;;0.00;0.00;;;;;;;7.55;100.00;98094.13;5012543;28;20919;-81
2021/12/28 07:17:35;;;;;;;0.00;0.00;;;;;;;7.55;100.00;98096.09;5012110;28;20474;-82
2021/12/28 07:20:03;;;;;;;0.00;0.00;;;;;;;7.54;100.00;98105.53;5012511;28;20044;-81
2021/12/28 07:22:29;;;;;;;0.00;0.00;;;;;;;7.52;100.00;98105.91;5013735;28;20074;-81
2021/12/28 07:24:56;;;;;;;0.00;0.00;;;;;;;7.49;100.00;98112.22;4995621;28;20536;-81
2021/12/28 07:27:23;;;;;;;0.00;0.00;;;;;;;7.47;100.00;98116.50;5040820;28;20037;-81
2021/12/28 07:29:49;;;;;;;0.00;0.00;;;;;;;7.43;100.00;98137.75;5051979;28;20112;-80
2021/12/28 07:32:16;;;;;;;0.00;0.00;;;;;;;7.41;100.00;98143.66;5051668;28;20372;-81
2021/12/28 07:34:43;;;;;;;0.00;0.00;;;;;;;7.37;100.00;98142.84;5051587;28;20047;-80
2021/12/28 07:37:10;;;;;;;0.00;0.00;;;;;;;7.33;100.00;98159.31;5053035;28;20033;-81
2021/12/28 07:39:36;;;;;;;0.00;0.00;;;;;;;7.28;100.00;98156.94;5033514;28;20050;-80
2021/12/28 07:42:04;;;;;;;0.00;0.00;;;;;;;7.29;100.00;98160.50;5013595;28;20084;-81
2021/12/28 07:44:31;;;;;;;0.00;0.00;;;;;;;7.27;100.00;98171.09;5011420;28;20042;-80
2021/12/28 07:46:58;;;;;;;0.00;0.00;;;;;;;7.24;100.00;98185.63;5011675;28;20604;-80
2021/12/28 07:49:25;;;;;;;0.00;0.00;;;;;;;7.22;100.00;98204.50;5011509;28;20041;-81
2021/12/28 07:51:52;;;;;;;0.00;0.00;;;;;;;7.23;100.00;98206.84;5011235;28;20387;-81
2021/12/28 07:54:18;;;;;;;0.08;0.08;;;;;;;7.23;100.00;98219.81;4995012;28;20486;-81
2021/12/28 07:56:45;;;;;;;0.00;0.00;;;;;;;7.22;100.00;98223.75;5011888;28;20044;-80
2021/12/28 07:59:12;;;;;;;0.10;0.10;;;;;;;7.21;100.00;98233.16;5011299;28;20041;-79
2021/12/28 08:01:39;;;;;;;0.00;0.00;;;;;;;7.20;100.00;98237.13;4995138;28;20041;-81
2021/12/28 08:04:06;;;;;;;0.00;0.00;;;;;;;7.22;100.00;98265.03;5012500;28;20034;-80
2021/12/28 08:06:33;;;;;;;0.00;0.00;;;;;;;7.22;100.00;98262.28;5017392;28;20044;-81
2021/12/28 08:09:00;;;;;;;0.00;0.00;;;;;;;7.18;100.00;98275.22;5031966;28;20034;-81
2021/12/28 08:11:27;;;;;;;0.00;0.00;;;;;;;7.16;100.00;98288.56;5031806;28;20041;-81
2021/12/28 08:13:54;;;;;;;0.00;0.00;;;;;;;7.16;100.00;98291.31;5019965;28;20054;-80
2021/12/28 08:16:21;;;;;;;0.00;0.00;;;;;;;7.15;100.00;98307.03;5011164;28;20049;-80
2021/12/28 08:18:48;;;;;;;0.00;0.00;;;;;;;7.14;100.00;98304.66;5011219;28;20473;-80
2021/12/28 08:21:35;;;;;;;0.00;0.00;;;;;;;7.13;100.00;98322.34;5012308;28;20049;-80
2021/12/28 08:24:03;;;;;;;0.00;0.00;;;;;;;7.12;100.00;98329.03;5012325;28;20033;-80
2021/12/28 08:26:29;;;;;;;0.00;0.00;;;;;;;7.10;100.00;98342.34;5008824;28;20087;-81
2021/12/28 08:28:56;;;;;;;0.00;0.00;;;;;;;7.08;100.00;98347.47;5051266;28;20049;-80
2021/12/28 08:31:25;;;;;;;0.00;0.00;;;;;;;7.07;100.00;98356.91;5019525;28;20052;-80
2021/12/28 08:33:52;;;;;;;0.00;0.00;;;;;;;7.04;100.00;98363.16;5012229;28;20038;-80
2021/12/28 08:36:19;;;;;;;0.00;0.00;;;;;;;7.02;100.00;98370.97;5011072;28;20755;-80
2021/12/28 08:38:46;;;;;;;0.00;0.00;;;;;;;7.03;100.00;98381.63;5012060;28;20048;-80
2021/12/28 08:41:12;;;;;;;0.00;0.00;;;;;;;6.98;100.00;98389.41;4994554;28;20054;-80
2021/12/28 08:43:46;;;;;;;0.00;0.00;;;;;;;6.97;100.00;98394.13;5010868;28;20568;-80
2021/12/28 08:46:13;;;;;;;0.00;0.00;;;;;;;7.00;100.00;98403.56;5011478;28;20112;-80
2021/12/28 08:48:44;;;;;;;0.00;0.00;;;;;;;6.99;100.00;98411.03;5008920;28;20108;-81
2021/12/28 08:51:10;;;;;;;0.00;0.00;;;;;;;6.99;100.00;98424.03;5010400;28;20120;-80
2021/12/28 08:53:37;;;;;;;0.00;0.00;;;;;;;6.98;100.00;98423.22;5010254;28;20034;-80
2021/12/28 08:56:04;;;;;;;0.00;0.00;;;;;;;6.96;100.00;98449.53;5010326;28;20033;-80
2021/12/28 08:58:31;;;;;;;0.00;0.00;;;;;;;6.97;100.00;98451.09;5011774;28;20040;-80
2021/12/28 09:00:58;;;;;;;0.00;0.00;;;;;;;6.96;100.00;98455.81;5010440;28;20389;-80
2021/12/28 09:03:25;;;;;;;0.00;0.00;;;;;;;6.95;100.00;98468.00;5011666;28;20092;-82
2021/12/28 09:05:52;;;;;;;0.00;0.00;;;;;;;6.93;100.00;98467.59;5010117;28;20121;-80
2021/12/28 09:08:19;;;;;;;0.00;0.00;;;;;;;6.91;100.00;98480.91;5010266;28;20125;-80
2021/12/28 09:10:46;;;;;;;0.05;0.05;;;;;;;6.91;100.00;98489.16;5010460;28;20048;-81
2021/12/28 09:13:14;;;;;;;0.00;0.00;;;;;;;6.93;100.00;98495.09;5026003;28;20056;-80
2021/12/28 09:15:42;;;;;;;0.10;0.10;;;;;;;6.95;100.00;98494.69;5029789;28;20041;-81
2021/12/28 09:18:09;;;;;;;0.25;0.25;;;;;;;6.98;100.00;98504.94;5029967;28;20444;-80
2021/12/28 09:20:36;;;;;;;0.35;0.35;;;;;;;7.00;100.00;98510.88;5029642;28;20041;-80
2021/12/28 09:23:11;;;;;;;0.00;0.00;;;;;;;6.98;100.00;98521.47;4994180;28;20599;-81
2021/12/28 09:25:38;;;;;;;;;;;;;;;6.99;100.00;98525.81;5011661;28;20038;-81
2021/12/28 09:28:07;;;;;;;0.00;0.00;;;;;;;7.02;100.00;98544.28;5049571;28;19928;-80
2021/12/28 09:30:35;;;;;;;0.00;0.00;;;;;;;7.01;100.00;98560.03;5051282;28;20077;-81
2021/12/28 09:33:03;;;;;;;0.00;0.00;;;;;;;7.00;100.00;98569.44;5049701;28;20095;-80
2021/12/28 09:35:30;;;;;;;0.00;0.00;;;;;;;7.04;100.00;98586.00;5049651;28;20086;-80
2021/12/28 09:37:57;;;;;;;0.00;0.00;;;;;;;7.04;100.00;98592.25;5044384;28;20048;-81
2021/12/28 09:40:27;;;;;;;0.00;0.00;;;;;;;7.06;100.00;98605.66;5010041;28;20580;-81
2021/12/28 09:42:55;;;;;;;0.00;0.00;;;;;;;7.07;100.00;98612.75;5011385;28;20056;-81
2021/12/28 09:45:22;;;;;;;0.00;0.00;;;;;;;7.09;100.00;98621.44;5009898;28;20050;-80
2021/12/28 09:47:49;;;;;;;0.00;0.00;;;;;;;7.10;100.00;98634.81;4993485;28;20057;-80
2021/12/28 09:50:17;;;;;;;0.00;0.00;;;;;;;7.12;100.00;98631.69;4993509;28;20048;-80
2021/12/28 09:52:47;;;;;;;0.00;0.00;;;;;;;7.13;100.00;98633.25;5009838;28;20095;-80
2021/12/28 09:55:21;;;;;;;0.00;0.00;;;;;;;7.15;100.00;98647.44;5011708;28;20042;-80
2021/12/28 09:57:49;;;;;;;0.00;0.00;;;;;;;7.17;100.00;98650.63;5010002;28;20121;-80
2021/12/28 10:00:19;;;;;;;0.00;0.00;;;;;;;7.17;100.00;98662.44;5010026;28;20066;-80
2021/12/28 10:03:05;;;;;;;0.00;0.00;;;;;;;7.21;100.00;98673.47;5009877;28;20072;-80
2021/12/28 10:05:33;;;;;;;0.00;0.00;;;;;;;7.23;100.00;98676.63;4993649;28;20156;-81
2021/12/28 10:08:03;;;;;;;0.00;0.00;;;;;;;7.22;100.00;98681.38;5010913;28;20125;-81
2021/12/28 10:10:44;;;;;;;0.00;0.00;;;;;;;7.22;100.00;98706.13;4994333;28;20045;-83
2021/12/28 10:13:21;;;;;;;0.00;0.00;;;;;;;7.25;100.00;98710.09;5009602;28;20052;-80
2021/12/28 10:15:49;;;;;;;0.00;0.00;;;;;;;7.23;100.00;98717.91;5011127;28;20073;-80
2021/12/28 10:18:16;;;;;;;0.00;0.00;;;;;;;7.25;100.00;98732.13;5018083;28;20053;-80
2021/12/28 10:21:06;;;;;;;0.00;0.00;;;;;;;7.28;100.00;98731.38;5013164;28;20759;-80
2021/12/28 10:23:33;;;;;;;0.00;0.00;;;;;;;7.31;100.00;98749.88;5014343;28;20045;-80
2021/12/28 10:26:06;;;;;;;0.00;0.00;;;;;;;7.31;100.00;98752.63;5035573;28;20380;-80
2021/12/28 10:28:38;;;;;;;0.20;0.20;;;;;;;7.30;100.00;98759.31;5053462;28;20124;-80
2021/12/28 10:31:08;;;;;;;0.22;0.22;;;;;;;7.30;100.00;98770.31;5013182;28;20046;-80
2021/12/28 10:33:38;;;;;;;0.00;0.00;;;;;;;7.31;100.00;98771.91;5012921;28;20042;-81
2021/12/28 10:36:09;;;;;;;0.00;0.00;;;;;;;7.31;100.00;98766.38;5014025;28;20048;-80
2021/12/28 10:38:39;;;;;;;0.00;0.00;;;;;;;7.31;100.00;98778.19;5012919;28;20433;-80
2021/12/28 10:41:10;;;;;;;0.00;0.00;;;;;;;7.32;100.00;98787.25;5014307;28;20397;-81
2021/12/28 10:43:40;;;;;;;0.00;0.00;;;;;;;7.33;100.00;98786.09;4996691;28;20052;-80
2021/12/28 10:46:10;;;;;;;0.00;0.00;;;;;;;7.34;100.00;98787.66;5014075;28;20516;-80
2021/12/28 10:48:50;;;;;;;0.00;0.00;;;;;;;7.38;100.00;98799.53;5012763;28;20552;-80
2021/12/28 10:51:23;;;;;;;0.00;0.00;;;;;;;7.41;100.00;98815.31;5013773;28;20034;-80
2021/12/28 10:54:06;;;;;;;0.00;0.00;;;;;;;7.39;100.00;98817.63;5012838;28;20034;-80
2021/12/28 10:56:36;;;;;;;0.00;0.00;;;;;;;7.34;100.00;98831.72;5012925;28;20502;-80
2021/12/28 10:59:05;;;;;;;0.17;0.17;;;;;;;7.30;100.00;98825.38;5012940;28;20125;-80
2021/12/28 11:01:37;;;;;;;0.10;0.10;;;;;;;7.31;100.00;98832.44;5013903;28;20034;-83
2021/12/28 11:04:08;;;;;;;0.00;0.00;;;;;;;7.30;100.00;98842.69;5013211;28;20041;-80
2021/12/28 11:06:41;;;;;;;0.00;0.00;;;;;;;7.26;100.00;98843.78;5013917;28;20042;-80
2021/12/28 11:09:23;;;;;;;0.00;0.00;;;;;;;7.28;100.00;98838.72;5012337;28;20057;-80
2021/12/28 11:11:55;;;;;;;0.00;0.00;;;;;;;7.27;100.00;98837.13;5013521;28;20034;-81
2021/12/28 11:14:25;;;;;;;0.10;0.10;;;;;;;7.24;100.00;98859.88;4996323;28;20393;-80
2021/12/28 11:16:57;;;;;;;0.00;0.00;;;;;;;7.25;100.00;98869.72;5013522;28;20038;-80
2021/12/28 11:19:30;;;;;;;0.00;0.00;;;;;;;7.24;100.00;98866.19;5012278;28;20536;-80
2021/12/28 11:22:07;;;;;;;0.00;0.00;;;;;;;7.30;100.00;98870.22;5028054;28;20077;-79
2021/12/28 11:24:39;;;;;;;0.00;0.00;;;;;;;7.36;100.00;98876.19;5024438;28;20033;-80
2021/12/28 11:27:07;;;;;;;0.00;0.00;;;;;;;7.38;100.00;98890.38;5043919;28;20043;-80
2021/12/28 11:29:54;;;;;;;0.00;0.00;;;;;;;7.36;100.00;98884.44;5051347;28;20395;-80
2021/12/28 11:32:21;;;;;;;0.00;0.00;;;;;;;7.34;100.00;98898.56;5051592;28;20433;-80
2021/12/28 11:34:48;;;;;;;0.47;0.47;;;;;;;7.31;100.00;98910.31;5051730;28;20056;-80
2021/12/28 11:37:22;;;;;;;0.05;0.05;;;;;;;7.31;100.00;98920.53;5023459;28;20504;-81
2021/12/28 11:39:49;;;;;;;0.00;0.00;;;;;;;7.32;100.00;98916.63;5011909;28;20090;-81
2021/12/28 11:42:17;;;;;;;0.00;0.00;;;;;;;7.35;100.00;98916.69;5011513;28;20045;-81